Time;durP1;ratioP1;P1;durP2;ratioP2;P2;SDS_P1;SDS_P2;PMS_P1;PMS_P2;Temp;Humidity;BMP_temperature;BMP_pressure;BME280_temperature;BME280_humidity;BME280_pressure;Samples;Min_cycle;Max_cycle;Signal;HPM_P1;HPM_P2
2023/05/10 00:00:40;;;;;;;0.45;0.15;;;15.70;99.90;;;;;;6097121;23;20445;-81
2023/05/10 00:03:07;;;;;;;0.20;0.10;;;15.60;99.90;;;;;;6097041;23;20414;-80
2023/05/10 00:05:34;;;;;;;1.00;0.10;;;15.60;99.90;;;;;;6096609;23;20382;-80
2023/05/10 00:08:01;;;;;;;0.10;0.10;;;15.60;99.90;;;;;;6097182;23;20367;-80
2023/05/10 00:10:27;;;;;;;0.20;0.10;;;15.60;99.90;;;;;;6095704;23;20396;-80
2023/05/10 00:12:54;;;;;;;0.35;0.10;;;15.50;99.90;;;;;;6097472;23;20422;-80
2023/05/10 00:15:21;;;;;;;0.60;0.10;;;15.50;99.90;;;;;;6096275;23;20371;-81
2023/05/10 00:17:48;;;;;;;0.10;0.00;;;15.50;99.90;;;;;;6097492;23;20427;-80
2023/05/10 00:20:15;;;;;;;0.10;0.10;;;15.50;99.90;;;;;;6096037;23;20400;-81
2023/05/10 00:22:42;;;;;;;0.10;0.10;;;15.50;99.90;;;;;;6097266;23;20676;-80
2023/05/10 00:25:10;;;;;;;0.30;0.00;;;15.50;99.90;;;;;;6096825;23;20494;-80
2023/05/10 00:27:37;;;;;;;0.40;0.10;;;15.50;99.90;;;;;;6096526;23;20383;-80
2023/05/10 00:30:04;;;;;;;0.40;0.00;;;15.50;99.90;;;;;;6097067;23;20376;-80
2023/05/10 00:32:31;;;;;;;0.00;0.00;;;15.50;99.90;;;;;;6121275;23;20414;-81
2023/05/10 00:34:58;;;;;;;0.10;0.00;;;15.50;99.90;;;;;;6096972;23;20411;-80
2023/05/10 00:37:25;;;;;;;0.00;0.00;;;15.50;99.90;;;;;;6096176;23;20426;-80
2023/05/10 00:39:52;;;;;;;0.10;0.10;;;15.50;99.90;;;;;;6097301;23;20422;-80
2023/05/10 00:42:18;;;;;;;0.00;0.00;;;15.40;99.90;;;;;;6120024;23;20431;-80
2023/05/10 00:44:46;;;;;;;0.03;0.00;;;15.40;99.90;;;;;;6097010;23;20455;-79
2023/05/10 00:47:13;;;;;;;0.10;0.10;;;15.40;99.90;;;;;;6097131;23;20517;-80
2023/05/10 00:49:41;;;;;;;0.20;0.00;;;15.40;99.90;;;;;;6096265;23;20750;-80
2023/05/10 00:52:09;;;;;;;0.30;0.10;;;15.40;99.90;;;;;;6097750;23;20384;-80
2023/05/10 00:54:36;;;;;;;0.10;0.10;;;15.30;99.90;;;;;;6097650;23;20412;-80
2023/05/10 00:57:03;;;;;;;0.20;0.10;;;15.30;99.90;;;;;;6098651;23;20372;-80
2023/05/10 00:59:30;;;;;;;0.30;0.10;;;15.30;99.90;;;;;;6097765;23;20376;-80
2023/05/10 01:01:58;;;;;;;0.10;0.00;;;15.20;99.90;;;;;;6098964;23;20368;-80
2023/05/10 01:04:28;;;;;;;0.00;0.00;;;15.20;99.90;;;;;;6082142;23;20415;-79
2023/05/10 01:06:55;;;;;;;0.20;0.10;;;15.20;99.90;;;;;;6064509;23;20379;-80
2023/05/10 01:09:22;;;;;;;0.30;0.10;;;15.20;99.90;;;;;;6063936;23;20379;-80
2023/05/10 01:11:50;;;;;;;0.00;0.00;;;15.20;99.90;;;;;;6064197;23;20714;-80
2023/05/10 01:14:19;;;;;;;0.60;0.00;;;15.20;99.90;;;;;;6065131;23;20384;-80
2023/05/10 01:16:48;;;;;;;0.30;0.00;;;15.20;99.90;;;;;;6064247;23;20458;-81
2023/05/10 01:19:29;;;;;;;0.05;0.00;;;15.20;99.90;;;;;;6064209;23;20431;-80
2023/05/10 01:22:17;;;;;;;0.10;0.00;;;15.10;99.90;;;;;;6052981;23;20383;-80
2023/05/10 01:24:57;;;;;;;0.20;0.00;;;15.10;99.90;;;;;;6063765;23;20429;-81
2023/05/10 01:28:06;;;;;;;0.00;0.00;;;15.10;99.90;;;;;;6064398;23;20712;-81
2023/05/10 01:30:54;;;;;;;0.98;0.00;;;15.10;99.90;;;;;;6051191;23;20738;-81
2023/05/10 01:33:42;;;;;;;0.00;0.00;;;15.00;99.90;;;;;;6064199;23;20714;-81
2023/05/10 01:36:19;;;;;;;0.10;0.10;;;15.00;99.90;;;;;;6064336;23;20410;-81
2023/05/10 01:38:55;;;;;;;0.00;0.00;;;15.10;99.90;;;;;;6063500;23;20375;-82
2023/05/10 01:42:00;;;;;;;0.00;0.00;;;15.10;99.90;;;;;;6065044;23;20375;-81
2023/05/10 01:44:37;;;;;;;0.05;0.00;;;15.10;99.90;;;;;;6064899;23;20406;-81
2023/05/10 01:47:19;;;;;;;0.90;0.00;;;15.10;99.90;;;;;;6064453;23;20402;-81
2023/05/10 01:49:53;;;;;;;0.40;0.00;;;15.10;99.90;;;;;;6052252;23;20367;-81
2023/05/10 01:52:26;;;;;;;0.65;0.00;;;15.10;99.90;;;;;;6064818;23;20434;-81
2023/05/10 01:55:01;;;;;;;0.08;0.00;;;15.20;99.90;;;;;;6063368;23;20830;-81
2023/05/10 01:57:35;;;;;;;0.43;0.00;;;15.10;99.90;;;;;;6064551;23;20954;-80
2023/05/10 02:00:04;;;;;;;0.32;0.00;;;15.10;99.90;;;;;;6063592;23;20381;-81
2023/05/10 02:02:36;;;;;;;0.60;0.00;;;15.10;99.90;;;;;;6065093;23;20451;-80
2023/05/10 02:05:08;;;;;;;0.00;0.00;;;15.10;99.90;;;;;;6063501;23;20379;-81
2023/05/10 02:07:37;;;;;;;0.00;0.00;;;15.10;99.90;;;;;;6088355;23;20722;-81
2023/05/10 02:10:07;;;;;;;0.10;0.00;;;15.00;99.90;;;;;;6062166;23;20405;-81
2023/05/10 02:12:43;;;;;;;0.70;0.00;;;15.00;99.90;;;;;;6064092;23;20411;-82
2023/05/10 02:15:13;;;;;;;0.00;0.00;;;14.90;99.90;;;;;;6063570;23;20710;-81
2023/05/10 02:17:41;;;;;;;0.10;0.00;;;14.90;99.90;;;;;;6064558;23;20456;-81
2023/05/10 02:20:10;;;;;;;0.00;0.00;;;14.90;99.90;;;;;;6063451;23;20385;-81
2023/05/10 02:22:38;;;;;;;0.00;0.00;;;14.90;99.90;;;;;;6064082;23;20395;-81
2023/05/10 02:25:08;;;;;;;0.10;0.00;;;14.90;99.90;;;;;;6063301;23;20395;-81
2023/05/10 02:27:37;;;;;;;0.13;0.00;;;14.80;99.90;;;;;;6064236;23;20387;-80
2023/05/10 02:30:05;;;;;;;0.10;0.00;;;14.80;99.90;;;;;;6063143;23;20461;-82
2023/05/10 02:32:34;;;;;;;0.10;0.00;;;14.80;99.90;;;;;;6064298;23;20415;-77
2023/05/10 02:35:03;;;;;;;0.10;0.10;;;14.80;99.90;;;;;;6062641;23;20695;-77
2023/05/10 02:37:32;;;;;;;0.20;0.00;;;14.80;99.90;;;;;;6064235;23;20386;-82
2023/05/10 02:39:59;;;;;;;0.00;0.00;;;14.80;99.90;;;;;;6063105;23;20394;-82
2023/05/10 02:42:27;;;;;;;0.47;0.10;;;14.70;99.90;;;;;;6065817;23;20474;-82
2023/05/10 02:45:00;;;;;;;0.10;0.10;;;14.80;99.90;;;;;;6063925;23;20762;-81
2023/05/10 02:47:28;;;;;;;0.10;0.10;;;14.70;99.90;;;;;;6063514;23;20434;-83
2023/05/10 02:49:55;;;;;;;0.50;0.08;;;14.70;99.90;;;;;;6063227;23;20398;-82
2023/05/10 02:52:27;;;;;;;0.73;0.13;;;14.70;99.90;;;;;;6063770;23;20743;-80
2023/05/10 02:55:02;;;;;;;0.55;0.10;;;14.70;99.90;;;;;;6062594;23;20395;-81
2023/05/10 02:57:33;;;;;;;0.10;0.10;;;14.70;99.90;;;;;;6063831;23;20376;-81
2023/05/10 03:00:02;;;;;;;0.80;0.10;;;14.70;99.90;;;;;;6063114;23;20466;-81
2023/05/10 03:02:30;;;;;;;0.10;0.10;;;14.70;99.90;;;;;;6064965;23;20371;-82
2023/05/10 03:04:57;;;;;;;0.20;0.10;;;14.60;99.90;;;;;;6062708;23;20379;-81
2023/05/10 03:07:25;;;;;;;0.27;0.10;;;14.60;99.90;;;;;;6063283;23;20441;-82
2023/05/10 03:09:52;;;;;;;0.10;0.10;;;14.50;99.90;;;;;;6063096;23;20386;-82
2023/05/10 03:12:46;;;;;;;0.10;0.10;;;14.50;99.90;;;;;;6063626;23;20438;-81
2023/05/10 03:15:50;;;;;;;0.10;0.10;;;14.50;99.90;;;;;;6063263;23;20447;-81
2023/05/10 03:18:28;;;;;;;0.10;0.10;;;14.50;99.90;;;;;;6063293;23;20375;-82
2023/05/10 03:21:01;;;;;;;0.10;0.00;;;14.40;99.90;;;;;;6062753;23;20419;-81
2023/05/10 03:23:42;;;;;;;0.10;0.10;;;14.40;99.90;;;;;;6063153;23;20414;-81
2023/05/10 03:26:13;;;;;;;0.60;0.10;;;14.40;99.90;;;;;;6062608;23;20470;-82
2023/05/10 03:28:41;;;;;;;0.17;0.10;;;14.40;99.90;;;;;;6063392;23;20458;-82
2023/05/10 03:31:09;;;;;;;0.73;0.40;;;14.40;99.90;;;;;;6063184;23;20718;-81
2023/05/10 03:33:35;;;;;;;1.50;0.77;;;14.40;99.90;;;;;;6063383;23;20387;-81
2023/05/10 03:36:03;;;;;;;3.53;2.53;;;14.40;99.90;;;;;;6062614;23;20386;-82
2023/05/10 03:38:30;;;;;;;0.73;0.60;;;14.40;99.90;;;;;;6063434;23;20722;-82
2023/05/10 03:40:57;;;;;;;0.40;0.30;;;14.40;99.90;;;;;;6062613;23;20379;-82
2023/05/10 03:43:24;;;;;;;0.40;0.30;;;14.30;99.90;;;;;;6063271;23;20379;-82
2023/05/10 03:45:50;;;;;;;0.40;0.20;;;14.40;99.90;;;;;;6063656;23;20385;-81
2023/05/10 03:48:17;;;;;;;0.20;0.13;;;14.30;99.90;;;;;;6062873;23;20379;-82
2023/05/10 03:50:44;;;;;;;0.30;0.30;;;14.30;99.90;;;;;;6063787;23;20386;-82
2023/05/10 03:53:12;;;;;;;0.30;0.20;;;14.30;99.90;;;;;;6062274;23;20450;-82
2023/05/10 03:55:38;;;;;;;0.60;0.30;;;14.30;99.90;;;;;;6064036;23;20386;-81
2023/05/10 03:58:05;;;;;;;0.50;0.30;;;14.20;99.90;;;;;;6062307;23;20455;-82
2023/05/10 04:00:32;;;;;;;0.32;0.30;;;14.20;99.90;;;;;;6065267;23;20423;-82
2023/05/10 04:02:59;;;;;;;0.40;0.30;;;14.20;99.90;;;;;;6064158;23;20407;-82
2023/05/10 04:05:26;;;;;;;0.50;0.30;;;14.20;99.90;;;;;;6063640;23;20763;-82
2023/05/10 04:07:53;;;;;;;0.30;0.30;;;14.10;99.90;;;;;;6086988;23;20759;-82
2023/05/10 04:10:21;;;;;;;0.50;0.30;;;14.10;99.90;;;;;;6062907;23;20436;-81
2023/05/10 04:12:47;;;;;;;0.25;0.25;;;14.10;99.90;;;;;;6063744;23;20428;-82
2023/05/10 04:15:14;;;;;;;0.30;0.28;;;14.10;99.90;;;;;;6063314;23;20395;-82
2023/05/10 04:17:41;;;;;;;0.43;0.20;;;14.10;99.90;;;;;;6063740;23;20383;-82
2023/05/10 04:20:09;;;;;;;0.17;0.17;;;14.20;99.90;;;;;;6063516;23;20385;-82
2023/05/10 04:22:36;;;;;;;0.20;0.20;;;14.20;99.90;;;;;;6063483;23;20455;-82
2023/05/10 04:25:03;;;;;;;0.70;0.20;;;14.20;99.90;;;;;;6061963;23;20379;-82
2023/05/10 04:27:30;;;;;;;0.10;0.10;;;14.20;99.90;;;;;;6066433;23;20375;-82
2023/05/10 04:29:57;;;;;;;0.70;0.20;;;14.20;99.90;;;;;;6064154;23;20403;-82
2023/05/10 04:32:24;;;;;;;0.90;0.20;;;14.20;99.90;;;;;;6065855;23;20398;-82
2023/05/10 04:34:51;;;;;;;0.30;0.10;;;14.20;99.90;;;;;;6064784;23;20391;-82
2023/05/10 04:37:18;;;;;;;0.20;0.20;;;14.20;99.90;;;;;;6065811;23;20799;-82
2023/05/10 04:39:45;;;;;;;0.20;0.13;;;14.20;99.90;;;;;;6065199;23;20413;-81
2023/05/10 04:42:12;;;;;;;0.50;0.10;;;14.20;99.90;;;;;;6064165;23;20431;-82
2023/05/10 04:44:38;;;;;;;0.20;0.20;;;14.20;99.90;;;;;;6064469;23;20485;-82
2023/05/10 04:47:05;;;;;;;0.20;0.20;;;14.20;99.90;;;;;;6065879;23;20379;-82
2023/05/10 04:49:32;;;;;;;0.40;0.30;;;14.20;99.90;;;;;;6065002;23;20374;-82
2023/05/10 04:51:59;;;;;;;0.20;0.20;;;14.20;99.90;;;;;;6064014;23;20414;-82
2023/05/10 04:54:26;;;;;;;0.47;0.35;;;14.20;99.90;;;;;;6065083;23;20698;-83
2023/05/10 04:56:53;;;;;;;1.20;0.60;;;14.20;99.90;;;;;;6065318;23;20759;-82
2023/05/10 04:59:19;;;;;;;0.40;0.30;;;14.20;99.90;;;;;;6064247;23;20765;-82
2023/05/10 05:01:48;;;;;;;0.50;0.40;;;14.20;99.90;;;;;;6064943;23;20446;-82
2023/05/10 05:04:15;;;;;;;0.40;0.32;;;14.20;99.90;;;;;;6063845;23;20379;-82
2023/05/10 05:06:42;;;;;;;0.40;0.40;;;14.20;99.90;;;;;;6065066;23;20723;-82
2023/05/10 05:09:10;;;;;;;0.50;0.40;;;14.20;99.90;;;;;;6063692;23;20379;-83
2023/05/10 05:11:36;;;;;;;0.30;0.30;;;14.20;99.90;;;;;;6064907;23;20375;-82
2023/05/10 05:14:03;;;;;;;0.20;0.20;;;14.20;99.90;;;;;;6064162;23;20371;-82
2023/05/10 05:16:31;;;;;;;0.30;0.30;;;14.30;99.90;;;;;;6064683;23;20413;-82
2023/05/10 05:19:00;;;;;;;0.70;0.20;;;14.30;99.90;;;;;;6064250;23;20395;-82
2023/05/10 05:21:27;;;;;;;0.30;0.30;;;14.30;99.90;;;;;;6064433;23;20372;-83
2023/05/10 05:23:56;;;;;;;0.32;0.30;;;14.30;99.90;;;;;;6064814;23;20418;-82
2023/05/10 05:26:23;;;;;;;0.30;0.30;;;14.30;99.90;;;;;;6064056;23;20435;-83
2023/05/10 05:28:53;;;;;;;0.28;0.20;;;14.30;99.90;;;;;;6064668;23;20410;-82
2023/05/10 05:31:20;;;;;;;0.47;0.30;;;14.30;99.90;;;;;;6063749;23;20508;-82
2023/05/10 05:33:47;;;;;;;0.30;0.30;;;14.40;99.90;;;;;;6064807;23;20773;-83
2023/05/10 05:36:14;;;;;;;0.30;0.30;;;14.40;99.90;;;;;;6063774;23;20387;-82
2023/05/10 05:38:41;;;;;;;0.80;0.30;;;14.40;99.90;;;;;;6065202;23;20379;-82
2023/05/10 05:41:08;;;;;;;0.20;0.20;;;14.40;99.90;;;;;;6063620;23;20399;-83
2023/05/10 05:43:35;;;;;;;0.30;0.30;;;14.40;99.90;;;;;;6065423;23;20695;-82
2023/05/10 05:46:04;;;;;;;0.30;0.30;;;14.40;99.90;;;;;;6063551;23;20399;-82
2023/05/10 05:48:31;;;;;;;0.30;0.30;;;14.40;99.90;;;;;;6064809;23;20379;-82
2023/05/10 05:50:58;;;;;;;0.80;0.40;;;14.40;99.90;;;;;;6063409;23;20394;-82
2023/05/10 05:53:25;;;;;;;0.55;0.38;;;14.40;99.90;;;;;;6087361;23;20467;-82
2023/05/10 05:55:57;;;;;;;0.70;0.40;;;14.40;99.90;;;;;;6063942;23;20841;-82
2023/05/10 05:58:25;;;;;;;0.38;0.38;;;14.40;99.90;;;;;;6063637;23;20864;-82
2023/05/10 06:00:53;;;;;;;0.30;0.30;;;14.50;99.90;;;;;;6064563;23;20390;-82
2023/05/10 06:03:20;;;;;;;0.50;0.40;;;14.50;99.90;;;;;;6065757;23;20379;-82
2023/05/10 06:05:47;;;;;;;0.30;0.30;;;14.50;99.90;;;;;;6069012;23;20470;-82
2023/05/10 06:08:14;;;;;;;0.30;0.30;;;14.50;99.90;;;;;;6068391;23;20381;-82
2023/05/10 06:10:41;;;;;;;0.40;0.40;;;14.60;99.90;;;;;;6068463;23;20373;-82
2023/05/10 06:13:08;;;;;;;0.40;0.40;;;14.60;99.90;;;;;;6067033;23;20756;-81
2023/05/10 06:15:35;;;;;;;0.57;0.40;;;14.60;99.90;;;;;;6066947;23;20404;-81
2023/05/10 06:18:02;;;;;;;1.00;0.55;;;14.60;99.90;;;;;;6066840;23;20461;-82
2023/05/10 06:20:31;;;;;;;0.40;0.40;;;14.60;99.90;;;;;;6067818;23;20365;-81
2023/05/10 06:22:58;;;;;;;0.80;0.50;;;14.60;99.90;;;;;;6068926;23;20374;-81
2023/05/10 06:25:25;;;;;;;0.60;0.60;;;14.60;99.90;;;;;;6067926;23;20373;-81
2023/05/10 06:27:56;;;;;;;0.50;0.50;;;14.70;99.90;;;;;;6069060;23;20393;-82
2023/05/10 06:30:27;;;;;;;0.60;0.50;;;14.70;99.90;;;;;;6067731;23;20487;-82
2023/05/10 06:32:54;;;;;;;1.05;0.55;;;14.70;99.90;;;;;;6068356;23;20413;-81
2023/05/10 06:35:22;;;;;;;0.60;0.50;;;14.70;99.90;;;;;;6067939;23;20386;-81
2023/05/10 06:37:49;;;;;;;0.60;0.60;;;14.60;99.90;;;;;;6068973;23;20404;-81
2023/05/10 06:40:16;;;;;;;0.77;0.70;;;14.70;99.90;;;;;;6067980;23;20374;-81
2023/05/10 06:42:44;;;;;;;0.98;0.60;;;14.70;99.90;;;;;;6068697;23;20883;-82
2023/05/10 06:45:12;;;;;;;0.60;0.60;;;14.70;99.90;;;;;;6067879;23;20380;-81
2023/05/10 06:47:40;;;;;;;0.57;0.57;;;14.70;99.90;;;;;;6068911;23;20374;-81
2023/05/10 06:50:13;;;;;;;0.80;0.60;;;14.70;99.90;;;;;;6068412;23;20445;-81
2023/05/10 06:52:40;;;;;;;0.77;0.60;;;14.70;99.90;;;;;;6091511;23;20384;-81
2023/05/10 06:55:08;;;;;;;0.90;0.60;;;14.70;99.90;;;;;;6093583;23;20378;-81
2023/05/10 06:57:35;;;;;;;0.80;0.80;;;14.70;99.90;;;;;;6067884;23;20383;-81
2023/05/10 07:00:06;;;;;;;0.80;0.70;;;14.70;99.90;;;;;;6068427;23;20729;-81
2023/05/10 07:02:33;;;;;;;1.07;0.93;;;14.70;99.90;;;;;;6067449;23;20855;-81
2023/05/10 07:05:00;;;;;;;1.40;0.90;;;14.70;99.90;;;;;;6069004;23;20382;-81
2023/05/10 07:07:29;;;;;;;0.80;0.80;;;14.70;99.90;;;;;;6067800;23;20374;-82
2023/05/10 07:09:57;;;;;;;1.10;1.00;;;14.70;99.90;;;;;;6068839;23;20405;-81
2023/05/10 07:12:24;;;;;;;0.70;0.70;;;14.60;99.90;;;;;;6067698;23;20469;-81
2023/05/10 07:14:52;;;;;;;1.00;0.80;;;14.60;99.90;;;;;;6068945;23;20393;-81
2023/05/10 07:17:19;;;;;;;0.70;0.70;;;14.60;99.90;;;;;;6067439;23;20469;-82
2023/05/10 07:19:46;;;;;;;0.60;0.60;;;14.70;99.90;;;;;;6068561;23;20381;-81
2023/05/10 07:22:13;;;;;;;0.70;0.70;;;14.70;99.90;;;;;;6068796;23;20895;-81
2023/05/10 07:24:40;;;;;;;0.95;0.73;;;14.70;99.90;;;;;;6067720;23;20389;-81
2023/05/10 07:27:07;;;;;;;0.90;0.70;;;14.80;99.90;;;;;;6068236;23;20377;-81
2023/05/10 07:29:34;;;;;;;1.50;1.20;;;14.90;99.90;;;;;;6092479;23;20389;-80
2023/05/10 07:32:01;;;;;;;1.13;1.03;;;15.00;99.90;;;;;;6068424;23;20409;-81
2023/05/10 07:34:29;;;;;;;1.20;0.90;;;15.20;99.90;;;;;;6067574;23;20378;-82
2023/05/10 07:36:58;;;;;;;1.50;1.27;;;15.30;99.90;;;;;;6093160;23;20377;-81
2023/05/10 07:39:26;;;;;;;1.10;0.80;;;15.40;99.90;;;;;;6067317;23;20416;-81
2023/05/10 07:41:54;;;;;;;0.90;0.80;;;15.50;99.90;;;;;;6068572;23;20432;-81
2023/05/10 07:44:21;;;;;;;0.80;0.60;;;15.50;99.90;;;;;;6066820;23;20452;-81
2023/05/10 07:46:48;;;;;;;0.80;0.80;;;15.60;99.90;;;;;;6068694;23;20381;-80
2023/05/10 07:49:16;;;;;;;0.82;0.70;;;15.60;99.90;;;;;;6068323;23;20383;-81
2023/05/10 07:51:43;;;;;;;0.70;0.60;;;15.70;99.90;;;;;;6067469;23;20396;-81
2023/05/10 07:54:10;;;;;;;1.00;0.80;;;15.70;99.90;;;;;;6068260;23;20457;-81
2023/05/10 07:56:36;;;;;;;0.80;0.70;;;15.80;99.90;;;;;;6066715;23;20462;-81
2023/05/10 07:59:04;;;;;;;0.70;0.60;;;15.80;99.90;;;;;;6068819;23;20749;-81
2023/05/10 08:01:33;;;;;;;1.00;0.70;;;15.90;99.90;;;;;;6092716;23;20385;-81
2023/05/10 08:04:01;;;;;;;0.90;0.45;;;15.90;99.90;;;;;;6070193;23;20469;-81
2023/05/10 08:06:29;;;;;;;1.30;0.70;;;16.00;99.90;;;;;;6069346;23;20442;-81
2023/05/10 08:08:56;;;;;;;0.63;0.60;;;16.10;99.90;;;;;;6070726;23;20690;-81
2023/05/10 08:11:24;;;;;;;1.30;0.80;;;16.30;99.90;;;;;;6069468;23;20373;-80
2023/05/10 08:13:51;;;;;;;1.40;0.70;;;16.50;99.90;;;;;;6070506;23;20378;-81
2023/05/10 08:16:18;;;;;;;1.30;0.60;;;16.70;99.90;;;;;;6069905;23;20381;-81
2023/05/10 08:18:46;;;;;;;0.60;0.60;;;16.90;99.90;;;;;;6069409;23;20400;-81
2023/05/10 08:21:14;;;;;;;0.60;0.60;;;17.00;99.90;;;;;;6069650;23;20432;-81
2023/05/10 08:23:43;;;;;;;0.85;0.60;;;17.20;99.90;;;;;;6068761;23;20448;-80
2023/05/10 08:26:10;;;;;;;1.13;0.70;;;17.30;99.90;;;;;;6070388;23;20436;-81
2023/05/10 08:28:37;;;;;;;0.95;0.90;;;17.40;99.00;;;;;;6093941;23;20401;-81
2023/05/10 08:31:05;;;;;;;0.70;0.60;;;17.40;97.70;;;;;;6070174;23;20404;-81
2023/05/10 08:33:32;;;;;;;0.60;0.40;;;17.30;97.60;;;;;;6069268;23;20374;-81
2023/05/10 08:35:59;;;;;;;0.40;0.40;;;17.40;98.00;;;;;;6070168;23;20389;-80
2023/05/10 08:38:26;;;;;;;0.82;0.43;;;17.50;95.70;;;;;;6068905;23;20385;-81
2023/05/10 08:40:58;;;;;;;0.40;0.40;;;17.70;95.60;;;;;;6069894;23;20396;-82
2023/05/10 08:43:29;;;;;;;0.50;0.30;;;17.80;93.70;;;;;;6069076;23;20464;-81
2023/05/10 08:46:00;;;;;;;0.50;0.43;;;18.00;94.50;;;;;;6070017;23;20412;-81
2023/05/10 08:48:29;;;;;;;1.15;0.43;;;18.10;94.30;;;;;;6068844;23;20377;-81
2023/05/10 08:50:59;;;;;;;0.70;0.50;;;18.20;93.10;;;;;;6070093;23;20404;-80
2023/05/10 08:53:28;;;;;;;0.70;0.50;;;18.40;93.90;;;;;;6068271;23;20378;-81
2023/05/10 08:55:55;;;;;;;0.70;0.40;;;18.60;93.40;;;;;;6069827;23;20412;-81
2023/05/10 08:58:22;;;;;;;0.40;0.40;;;18.70;90.40;;;;;;6069719;23;20369;-81
2023/05/10 09:00:52;;;;;;;0.57;0.50;;;18.70;88.60;;;;;;6068686;23;20361;-81
2023/05/10 09:03:19;;;;;;;0.40;0.40;;;18.60;87.40;;;;;;6069358;23;20866;-80
2023/05/10 09:05:46;;;;;;;0.60;0.60;;;18.50;88.40;;;;;;6068787;23;20542;-81
2023/05/10 09:08:16;;;;;;;0.70;0.70;;;18.40;89.40;;;;;;6069876;23;20401;-80
2023/05/10 09:10:49;;;;;;;0.50;0.50;;;18.20;90.50;;;;;;6069224;23;20729;-81
2023/05/10 09:13:17;;;;;;;0.93;0.60;;;18.10;92.90;;;;;;6069303;23;20373;-80
2023/05/10 09:15:45;;;;;;;1.00;0.80;;;18.00;93.20;;;;;;6068133;23;20464;-80
2023/05/10 09:18:12;;;;;;;0.77;0.70;;;18.00;92.70;;;;;;6070148;23;20370;-80
2023/05/10 09:20:40;;;;;;;0.80;0.80;;;18.00;93.10;;;;;;6068653;23;20452;-80
2023/05/10 09:23:07;;;;;;;0.75;0.70;;;18.00;93.40;;;;;;6069727;23;20428;-80
2023/05/10 09:25:35;;;;;;;0.60;0.60;;;18.00;92.20;;;;;;6068670;23;20406;-80
2023/05/10 09:28:05;;;;;;;0.60;0.60;;;18.10;93.60;;;;;;6070236;23;20689;-81
2023/05/10 09:30:32;;;;;;;0.52;0.50;;;18.30;93.00;;;;;;6068762;23;20457;-81
2023/05/10 09:32:59;;;;;;;0.60;0.60;;;18.50;92.50;;;;;;6069157;23;20393;-81
2023/05/10 09:35:30;;;;;;;0.63;0.63;;;18.70;90.60;;;;;;6069573;23;20381;-80
2023/05/10 09:38:01;;;;;;;0.97;0.60;;;18.70;89.50;;;;;;6068475;23;20432;-81
2023/05/10 09:40:29;;;;;;;1.00;0.50;;;18.80;90.00;;;;;;6069450;23;20377;-81
2023/05/10 09:42:55;;;;;;;0.63;0.60;;;18.90;90.00;;;;;;6068130;23;20436;-81
2023/05/10 09:45:30;;;;;;;0.40;0.40;;;18.90;87.50;;;;;;6069442;23;20408;-81
2023/05/10 09:47:58;;;;;;;1.13;0.40;;;18.80;88.90;;;;;;6067978;23;20377;-81
2023/05/10 09:50:26;;;;;;;0.70;0.55;;;18.80;90.40;;;;;;6069452;23;20712;-80
2023/05/10 09:52:57;;;;;;;0.60;0.50;;;18.90;89.70;;;;;;6068585;23;20401;-80
2023/05/10 09:55:39;;;;;;;0.40;0.40;;;18.80;86.20;;;;;;6069205;23;20380;-80
2023/05/10 09:58:12;;;;;;;0.80;0.70;;;18.80;86.30;;;;;;6068479;23;20389;-80
2023/05/10 10:00:41;;;;;;;0.80;0.80;;;18.70;86.90;;;;;;6094430;23;20432;-80
2023/05/10 10:03:16;;;;;;;0.70;0.70;;;18.50;87.10;;;;;;6067885;23;20377;-80
2023/05/10 10:05:44;;;;;;;0.60;0.60;;;18.20;86.90;;;;;;6069196;23;20377;-80
2023/05/10 10:08:12;;;;;;;1.00;0.77;;;18.10;90.00;;;;;;6068583;23;20414;-80
2023/05/10 10:10:40;;;;;;;0.85;0.60;;;17.90;90.10;;;;;;6069680;23;20386;-81
2023/05/10 10:13:09;;;;;;;3.75;0.90;;;17.80;91.40;;;;;;6069030;23;20464;-81
2023/05/10 10:15:36;;;;;;;1.05;0.95;;;17.70;92.50;;;;;;6068890;23;20382;-80
2023/05/10 10:18:04;;;;;;;0.85;0.65;;;17.50;93.50;;;;;;6093463;23;20382;-80
2023/05/10 10:20:31;;;;;;;0.75;0.60;;;17.40;94.60;;;;;;6068433;23;20388;-79
2023/05/10 10:22:58;;;;;;;0.70;0.60;;;17.40;94.40;;;;;;6068060;23;20712;-79
2023/05/10 10:25:25;;;;;;;0.60;0.60;;;17.30;94.80;;;;;;6068241;23;20400;-79
2023/05/10 10:27:52;;;;;;;0.70;0.50;;;17.30;95.30;;;;;;6067539;23;20386;-79
2023/05/10 10:30:42;;;;;;;0.90;0.60;;;17.40;95.50;;;;;;6093524;23;20416;-79
2023/05/10 10:33:36;;;;;;;0.50;0.50;;;17.40;95.00;;;;;;6067803;23;20415;-79
2023/05/10 10:36:04;;;;;;;0.57;0.50;;;17.40;94.00;;;;;;6067552;23;20456;-79
2023/05/10 10:38:38;;;;;;;0.40;0.40;;;17.40;94.10;;;;;;6093317;23;20410;-79
2023/05/10 10:41:37;;;;;;;0.70;0.60;;;17.50;94.30;;;;;;6067504;23;20382;-79
2023/05/10 10:44:22;;;;;;;0.70;0.50;;;17.50;93.20;;;;;;6068136;23;20396;-79
2023/05/10 10:47:24;;;;;;;0.50;0.50;;;17.50;92.30;;;;;;6093689;23;20466;-79
2023/05/10 10:49:57;;;;;;;0.90;0.60;;;17.40;92.60;;;;;;6068255;23;20703;-80
2023/05/10 10:52:29;;;;;;;0.45;0.45;;;17.50;93.80;;;;;;6068548;23;20780;-79
2023/05/10 10:55:24;;;;;;;0.68;0.55;;;17.60;94.10;;;;;;6068025;23;20903;-79
2023/05/10 10:57:59;;;;;;;0.60;0.45;;;17.70;92.20;;;;;;6066617;23;22776;-80
2023/05/10 11:00:37;;;;;;;0.40;0.30;;;17.80;91.70;;;;;;6069223;23;20381;-80
2023/05/10 11:03:06;;;;;;;0.55;0.50;;;17.80;92.10;;;;;;6066477;23;20380;-80
2023/05/10 11:05:44;;;;;;;0.57;0.50;;;17.80;91.90;;;;;;6068505;23;20374;-80
2023/05/10 11:08:25;;;;;;;0.57;0.50;;;17.90;91.40;;;;;;6067736;23;20682;-80
2023/05/10 11:10:59;;;;;;;0.50;0.30;;;18.00;91.70;;;;;;6067261;23;20381;-80
2023/05/10 11:13:41;;;;;;;0.52;0.30;;;18.10;92.50;;;;;;6067820;23;20460;-80
2023/05/10 11:16:21;;;;;;;0.40;0.40;;;18.20;92.40;;;;;;6067282;23;20365;-80
2023/05/10 11:19:09;;;;;;;0.65;0.40;;;18.30;91.20;;;;;;6067315;23;20374;-80
2023/05/10 11:22:03;;;;;;;0.63;0.57;;;18.20;90.10;;;;;;6068019;23;20457;-80
2023/05/10 11:24:29;;;;;;;0.50;0.40;;;18.20;90.00;;;;;;6067829;23;20828;-80
2023/05/10 11:26:56;;;;;;;0.60;0.40;;;18.10;90.00;;;;;;6068043;23;20397;-80
2023/05/10 11:29:26;;;;;;;0.40;0.30;;;18.00;90.80;;;;;;6067794;23;20397;-81
2023/05/10 11:31:56;;;;;;;0.38;0.38;;;18.00;91.60;;;;;;6068394;23;20370;-80
2023/05/10 11:34:33;;;;;;;0.32;0.32;;;18.10;91.90;;;;;;6067629;23;20377;-80
2023/05/10 11:37:00;;;;;;;0.40;0.40;;;18.10;92.10;;;;;;6068017;23;20397;-80
2023/05/10 11:39:29;;;;;;;0.47;0.40;;;18.00;91.70;;;;;;6067157;23;20741;-81
2023/05/10 11:41:57;;;;;;;0.90;0.70;;;18.10;93.20;;;;;;6068414;23;20369;-80
2023/05/10 11:44:31;;;;;;;0.70;0.55;;;18.10;92.60;;;;;;6092129;23;20385;-81
2023/05/10 11:47:00;;;;;;;0.50;0.50;;;18.20;92.60;;;;;;6068186;23;20385;-80
2023/05/10 11:49:27;;;;;;;0.75;0.52;;;18.20;91.80;;;;;;6067229;23;20454;-80
2023/05/10 11:52:07;;;;;;;1.45;1.35;;;18.20;93.10;;;;;;6067351;23;20716;-80
2023/05/10 11:54:34;;;;;;;1.57;1.47;;;18.30;93.20;;;;;;6067447;23;20377;-80
2023/05/10 11:57:01;;;;;;;1.80;1.40;;;18.20;93.90;;;;;;6067912;23;20389;-80
2023/05/10 11:59:28;;;;;;;1.20;1.10;;;18.00;93.70;;;;;;6067346;23;20381;-80
2023/05/10 12:01:55;;;;;;;1.20;1.10;;;17.90;95.20;;;;;;6068014;23;20393;-80
2023/05/10 12:04:22;;;;;;;2.00;1.10;;;17.80;96.90;;;;;;6067027;23;20429;-81
2023/05/10 12:06:49;;;;;;;1.15;1.00;;;17.90;98.00;;;;;;6068171;23;20377;-80
2023/05/10 12:09:16;;;;;;;1.15;1.05;;;17.90;97.00;;;;;;6067279;23;20483;-81
2023/05/10 12:11:57;;;;;;;1.30;1.20;;;18.00;96.30;;;;;;6070640;23;20377;-80
2023/05/10 12:14:24;;;;;;;1.65;1.20;;;18.00;96.10;;;;;;6067481;23;20449;-80
2023/05/10 12:16:51;;;;;;;1.60;1.13;;;18.00;95.00;;;;;;6068059;23;20385;-81
2023/05/10 12:19:20;;;;;;;1.20;1.10;;;18.00;95.50;;;;;;6067465;23;20369;-81
2023/05/10 12:21:47;;;;;;;1.30;1.20;;;18.00;95.70;;;;;;6068188;23;20709;-80
2023/05/10 12:24:17;;;;;;;1.67;1.58;;;18.10;94.80;;;;;;6066655;23;20431;-80
2023/05/10 12:26:45;;;;;;;1.30;1.20;;;18.00;94.30;;;;;;6067927;23;20448;-80
2023/05/10 12:29:16;;;;;;;2.05;1.50;;;18.00;95.10;;;;;;6067400;23;20482;-80
2023/05/10 12:31:54;;;;;;;1.30;1.10;;;18.00;95.50;;;;;;6068222;23;20429;-80
2023/05/10 12:34:25;;;;;;;1.80;1.40;;;18.10;95.80;;;;;;6092382;23;20389;-80
2023/05/10 12:36:53;;;;;;;1.30;1.20;;;18.20;94.10;;;;;;6067734;23;20386;-80
2023/05/10 12:39:20;;;;;;;1.30;1.10;;;18.30;95.30;;;;;;6067137;23;20385;-81
2023/05/10 12:41:47;;;;;;;1.20;1.10;;;18.40;94.50;;;;;;6068011;23;20428;-80
2023/05/10 12:44:14;;;;;;;1.40;1.30;;;18.50;91.20;;;;;;6067027;23;20377;-80
2023/05/10 12:46:41;;;;;;;0.90;0.90;;;18.50;90.60;;;;;;6067712;23;20369;-81
2023/05/10 12:49:08;;;;;;;1.10;0.73;;;18.50;91.00;;;;;;6095171;23;20716;-80
2023/05/10 12:51:35;;;;;;;0.90;0.70;;;18.60;91.10;;;;;;6068957;23;20381;-81
2023/05/10 12:54:03;;;;;;;0.83;0.83;;;18.70;89.70;;;;;;6069816;23;20401;-81
2023/05/10 12:56:30;;;;;;;0.68;0.68;;;18.80;90.00;;;;;;6068627;23;20385;-81
2023/05/10 12:58:57;;;;;;;0.75;0.70;;;18.90;90.30;;;;;;6069769;23;20832;-81
2023/05/10 13:01:24;;;;;;;0.77;0.65;;;19.10;88.70;;;;;;6068959;23;20707;-80